Time;durP1;ratioP1;P1;durP2;ratioP2;P2;SDS_P1;SDS_P2;PMS_P1;PMS_P2;Temp;Humidity;BMP_temperature;BMP_pressure;BME280_temperature;BME280_humidity;BME280_pressure;Samples;Min_cycle;Max_cycle;Signal;HPM_P1;HPM_P2
2022/05/22 00:01:48;;;;;;;16.80;5.15;;;;;;;;;;4963586;28;20034;-88
2022/05/22 00:04:14;;;;;;;19.33;5.03;;;;;;;;;;4966635;28;20378;-88
2022/05/22 00:06:40;;;;;;;11.15;5.25;;;;;;;;;;4967893;28;20121;-88
2022/05/22 00:09:06;;;;;;;15.88;5.03;;;;;;;;;;4968671;28;20031;-88
2022/05/22 00:11:32;;;;;;;27.42;5.35;;;;;;;;;;4966048;28;20061;-88
2022/05/22 00:13:58;;;;;;;16.20;6.32;;;;;;;;;;4968168;28;20140;-88
2022/05/22 00:16:36;;;;;;;12.90;5.70;;;;;;;;;;4966261;28;20026;-89
2022/05/22 00:19:06;;;;;;;21.17;5.65;;;;;;;;;;4969397;28;20035;-88
2022/05/22 00:21:33;;;;;;;14.98;5.38;;;;;;;;;;4969829;28;20543;-88
2022/05/22 00:23:59;;;;;;;18.48;5.88;;;;;;;;;;4986828;28;20490;-88
2022/05/22 00:26:25;;;;;;;21.40;6.90;;;;;;;;;;4967565;28;20549;-88
2022/05/22 00:28:51;;;;;;;19.17;6.15;;;;;;;;;;4971070;28;20088;-88
2022/05/22 00:31:17;;;;;;;15.77;5.72;;;;;;;;;;4968658;28;20042;-88
2022/05/22 00:33:43;;;;;;;17.73;5.75;;;;;;;;;;4967797;28;20117;-88
2022/05/22 00:36:10;;;;;;;14.48;6.25;;;;;;;;;;4964199;28;20142;-88
2022/05/22 00:38:36;;;;;;;11.45;6.43;;;;;;;;;;4969379;28;20030;-89
2022/05/22 00:41:03;;;;;;;21.08;6.47;;;;;;;;;;4963350;28;20026;-88
2022/05/22 00:43:35;;;;;;;15.05;6.00;;;;;;;;;;4968547;28;20027;-88
2022/05/22 00:46:02;;;;;;;17.42;7.78;;;;;;;;;;4969897;28;20039;-88
2022/05/22 00:48:28;;;;;;;13.43;6.18;;;;;;;;;;4970140;28;20386;-89
2022/05/22 00:51:01;;;;;;;19.80;7.53;;;;;;;;;;4968553;28;20512;-88
2022/05/22 00:53:28;;;;;;;25.25;7.35;;;;;;;;;;4971570;28;20104;-88
2022/05/22 00:55:54;;;;;;;20.98;7.30;;;;;;;;;;4979774;28;20035;-88
2022/05/22 00:58:23;;;;;;;16.42;6.32;;;;;;;;;;4961471;28;20038;-88
2022/05/22 01:00:50;;;;;;;19.85;7.05;;;;;;;;;;4959826;28;20015;-88
2022/05/22 01:03:27;;;;;;;15.60;7.43;;;;;;;;;;4981625;28;20031;-88
2022/05/22 01:06:14;;;;;;;25.15;7.65;;;;;;;;;;4957432;28;20046;-88
2022/05/22 01:08:42;;;;;;;;;;;;;;;;;;4966782;28;20497;-88
2022/05/22 01:11:08;;;;;;;18.65;6.85;;;;;;;;;;4975232;28;19913;-88
2022/05/22 01:13:35;;;;;;;22.05;6.93;;;;;;;;;;4958072;28;20398;-88
2022/05/22 01:16:03;;;;;;;20.00;7.15;;;;;;;;;;4956518;28;20118;-89
2022/05/22 01:18:30;;;;;;;27.70;8.23;;;;;;;;;;4965694;28;20038;-88
2022/05/22 01:20:56;;;;;;;17.33;7.32;;;;;;;;;;4965129;28;20726;-88
2022/05/22 01:23:23;;;;;;;18.73;6.07;;;;;;;;;;4955169;28;20522;-87
2022/05/22 01:25:49;;;;;;;22.75;7.82;;;;;;;;;;4986530;28;20521;-88
2022/05/22 01:28:17;;;;;;;23.80;7.13;;;;;;;;;;4962056;28;20065;-88
2022/05/22 01:30:43;;;;;;;23.52;7.25;;;;;;;;;;4964837;28;20588;-88
2022/05/22 01:33:09;;;;;;;22.58;8.57;;;;;;;;;;4966106;28;20030;-87
2022/05/22 01:35:35;;;;;;;30.35;8.48;;;;;;;;;;4967205;28;20511;-89
2022/05/22 01:38:02;;;;;;;23.55;8.27;;;;;;;;;;4963199;28;20533;-88
2022/05/22 01:40:28;;;;;;;26.48;8.88;;;;;;;;;;4985029;28;20033;-88
2022/05/22 01:43:01;;;;;;;15.13;7.63;;;;;;;;;;4969900;28;20022;-88
2022/05/22 01:45:27;;;;;;;24.17;8.63;;;;;;;;;;4964216;28;20186;-88
2022/05/22 01:47:53;;;;;;;26.02;8.65;;;;;;;;;;4982850;28;20030;-88
2022/05/22 01:50:21;;;;;;;18.67;8.65;;;;;;;;;;4970938;28;20181;-88
2022/05/22 01:52:47;;;;;;;15.55;7.78;;;;;;;;;;4987492;28;20101;-88
2022/05/22 01:55:14;;;;;;;26.65;9.55;;;;;;;;;;4972461;28;20081;-88
2022/05/22 01:57:40;;;;;;;25.70;8.70;;;;;;;;;;4976637;28;20507;-89
2022/05/22 02:00:07;;;;;;;17.83;7.75;;;;;;;;;;4977192;28;20042;-89
2022/05/22 02:02:34;;;;;;;20.90;7.82;;;;;;;;;;4977606;28;20037;-88
2022/05/22 02:05:02;;;;;;;22.58;8.00;;;;;;;;;;4975047;28;20085;-88
2022/05/22 02:10:12;;;;;;;17.10;7.40;;;;;;;;;;4988551;28;20041;-88
2022/05/22 02:12:39;;;;;;;32.15;8.57;;;;;;;;;;4972877;28;20407;-88
2022/05/22 02:15:05;;;;;;;14.15;7.20;;;;;;;;;;4974081;28;20397;-89
2022/05/22 02:17:32;;;;;;;20.10;7.55;;;;;;;;;;4974924;28;20471;-88
2022/05/22 02:19:58;;;;;;;19.17;7.63;;;;;;;;;;4972101;28;20604;-88
2022/05/22 02:22:24;;;;;;;17.10;6.95;;;;;;;;;;4990194;28;20462;-88
2022/05/22 02:24:51;;;;;;;27.80;8.13;;;;;;;;;;4971272;28;20034;-88
2022/05/22 02:27:17;;;;;;;21.95;7.50;;;;;;;;;;4971000;28;20677;-89
2022/05/22 02:29:43;;;;;;;20.15;7.78;;;;;;;;;;4975151;28;20033;-89
2022/05/22 02:32:09;;;;;;;19.85;7.47;;;;;;;;;;4970573;28;20479;-89
2022/05/22 02:34:35;;;;;;;27.25;8.18;;;;;;;;;;4983108;28;20145;-88
2022/05/22 02:37:01;;;;;;;14.40;6.60;;;;;;;;;;4987754;28;20172;-89
2022/05/22 02:39:33;;;;;;;17.23;7.32;;;;;;;;;;4971514;28;20045;-88
2022/05/22 02:42:03;;;;;;;23.85;7.13;;;;;;;;;;4972734;28;20972;-88
2022/05/22 02:44:29;;;;;;;16.13;6.93;;;;;;;;;;4970402;28;20426;-88
2022/05/22 02:46:56;;;;;;;16.50;5.25;;;;;;;;;;4987408;28;20490;-88
2022/05/22 02:49:30;;;;;;;11.23;4.85;;;;;;;;;;4972156;28;20453;-88
2022/05/22 02:52:03;;;;;;;13.38;4.40;;;;;;;;;;4970280;28;20132;-89
2022/05/22 02:54:36;;;;;;;16.20;4.53;;;;;;;;;;4966351;28;20387;-88
2022/05/22 02:57:03;;;;;;;9.90;4.43;;;;;;;;;;4979911;28;20394;-88
2022/05/22 02:59:32;;;;;;;11.43;4.57;;;;;;;;;;4982064;28;20542;-88
2022/05/22 03:01:59;;;;;;;13.48;5.10;;;;;;;;;;4969649;28;20462;-88
2022/05/22 03:04:25;;;;;;;12.25;5.53;;;;;;;;;;4991483;28;20019;-88
2022/05/22 03:06:51;;;;;;;15.18;5.10;;;;;;;;;;4969590;28;20038;-88
2022/05/22 03:09:17;;;;;;;9.57;4.82;;;;;;;;;;4967000;28;20053;-87
2022/05/22 03:11:44;;;;;;;16.58;5.28;;;;;;;;;;4967187;28;20038;-88
2022/05/22 03:14:10;;;;;;;11.65;5.38;;;;;;;;;;4990499;28;20049;-88
2022/05/22 03:16:36;;;;;;;18.92;5.18;;;;;;;;;;4991191;28;20030;-88
2022/05/22 03:19:03;;;;;;;18.85;5.97;;;;;;;;;;4968573;28;20085;-88
2022/05/22 03:21:29;;;;;;;11.32;5.25;;;;;;;;;;4967943;28;20124;-88
2022/05/22 03:23:56;;;;;;;16.50;5.90;;;;;;;;;;4967555;28;20121;-88
2022/05/22 03:26:22;;;;;;;15.02;5.20;;;;;;;;;;4972326;28;20097;-88
2022/05/22 03:28:48;;;;;;;16.80;5.78;;;;;;;;;;4963911;28;20701;-88
2022/05/22 03:31:16;;;;;;;13.05;6.13;;;;;;;;;;4972075;28;20034;-88
2022/05/22 03:33:42;;;;;;;15.82;6.00;;;;;;;;;;4984093;28;20031;-88
2022/05/22 03:36:08;;;;;;;16.10;6.05;;;;;;;;;;4966734;28;20505;-88
2022/05/22 03:38:34;;;;;;;20.73;6.30;;;;;;;;;;4968820;28;20022;-88
2022/05/22 03:41:00;;;;;;;18.88;6.90;;;;;;;;;;4965390;28;20181;-88
2022/05/22 03:43:26;;;;;;;15.38;6.47;;;;;;;;;;4972769;28;20033;-89
2022/05/22 03:45:52;;;;;;;12.93;6.45;;;;;;;;;;4981589;28;20034;-87
2022/05/22 03:48:18;;;;;;;12.10;5.70;;;;;;;;;;4967504;28;20048;-88
2022/05/22 03:50:47;;;;;;;19.15;8.45;;;;;;;;;;4969684;28;20030;-88
2022/05/22 03:53:13;;;;;;;26.52;7.30;;;;;;;;;;4984410;28;20573;-88
2022/05/22 03:55:39;;;;;;;27.52;7.45;;;;;;;;;;4965493;28;20042;-89
2022/05/22 03:58:05;;;;;;;15.05;7.22;;;;;;;;;;4967026;28;20046;-89
2022/05/22 04:00:31;;;;;;;21.88;7.13;;;;;;;;;;4963788;28;20039;-88
2022/05/22 04:02:57;;;;;;;16.45;6.88;;;;;;;;;;4965247;28;20052;-88
2022/05/22 04:05:23;;;;;;;22.58;7.47;;;;;;;;;;4971905;28;20038;-88
2022/05/22 04:07:49;;;;;;;18.63;6.75;;;;;;;;;;4971128;28;20034;-89
2022/05/22 04:10:17;;;;;;;14.43;6.28;;;;;;;;;;4986483;28;20022;-89
2022/05/22 04:12:43;;;;;;;15.15;6.80;;;;;;;;;;4961421;28;20045;-89
2022/05/22 04:15:10;;;;;;;20.55;7.47;;;;;;;;;;4959589;28;20069;-88
2022/05/22 04:17:37;;;;;;;23.95;7.53;;;;;;;;;;4960628;28;20545;-88
2022/05/22 04:20:03;;;;;;;29.15;7.55;;;;;;;;;;4963402;28;20062;-88
2022/05/22 04:22:29;;;;;;;22.67;8.05;;;;;;;;;;4959470;28;20462;-88
2022/05/22 04:25:15;;;;;;;23.98;6.18;;;;;;;;;;4964047;28;20061;-89
2022/05/22 04:27:42;;;;;;;13.60;6.47;;;;;;;;;;4966865;28;20042;-88
2022/05/22 04:30:09;;;;;;;16.48;5.65;;;;;;;;;;4964806;28;20153;-89
2022/05/22 04:32:35;;;;;;;13.00;5.60;;;;;;;;;;4966455;28;20023;-88
2022/05/22 04:35:01;;;;;;;15.05;5.65;;;;;;;;;;4957296;28;20077;-88
2022/05/22 04:37:27;;;;;;;20.90;6.10;;;;;;;;;;4965512;28;20038;-88
2022/05/22 04:39:53;;;;;;;14.60;6.80;;;;;;;;;;4984450;28;20453;-88
2022/05/22 04:42:20;;;;;;;15.02;5.95;;;;;;;;;;4968857;28;20044;-89
2022/05/22 04:44:46;;;;;;;13.00;6.00;;;;;;;;;;4964571;28;20121;-88
2022/05/22 04:47:12;;;;;;;16.77;7.07;;;;;;;;;;4980863;28;20117;-88
2022/05/22 04:49:37;;;;;;;19.75;7.80;;;;;;;;;;4970542;28;20022;-88
2022/05/22 04:52:04;;;;;;;19.83;6.22;;;;;;;;;;4989340;28;20054;-89
2022/05/22 04:54:30;;;;;;;24.65;6.60;;;;;;;;;;4963350;28;20386;-88
2022/05/22 04:56:56;;;;;;;23.38;8.07;;;;;;;;;;4983593;28;20042;-89
2022/05/22 04:59:22;;;;;;;29.63;7.70;;;;;;;;;;4962641;28;20069;-89
2022/05/22 05:01:48;;;;;;;20.23;6.60;;;;;;;;;;4971014;28;20550;-88
2022/05/22 05:04:14;;;;;;;19.98;7.38;;;;;;;;;;4970396;28;20129;-89
2022/05/22 05:06:40;;;;;;;21.65;6.63;;;;;;;;;;4966531;28;20121;-89
2022/05/22 05:09:06;;;;;;;15.02;5.90;;;;;;;;;;4989720;28;20057;-88
2022/05/22 05:11:32;;;;;;;26.65;6.60;;;;;;;;;;4969308;28;20129;-88
2022/05/22 05:13:58;;;;;;;22.80;6.20;;;;;;;;;;4977540;28;20505;-89
2022/05/22 05:16:24;;;;;;;23.02;6.57;;;;;;;;;;4975024;28;20220;-89
2022/05/22 05:18:50;;;;;;;21.05;6.53;;;;;;;;;;4974675;28;20034;-88
2022/05/22 05:21:18;;;;;;;17.13;6.20;;;;;;;;;;4966422;28;20031;-89
2022/05/22 05:23:44;;;;;;;25.33;6.93;;;;;;;;;;4976583;28;20015;-89
2022/05/22 05:26:10;;;;;;;21.35;6.22;;;;;;;;;;4974833;28;20041;-88
2022/05/22 05:28:36;;;;;;;22.13;7.80;;;;;;;;;;4976385;28;20042;-88
2022/05/22 05:31:03;;;;;;;19.00;6.30;;;;;;;;;;4973836;28;20080;-88
2022/05/22 05:33:31;;;;;;;14.80;5.28;;;;;;;;;;4970743;28;20042;-88
2022/05/22 05:35:58;;;;;;;16.58;5.65;;;;;;;;;;4975861;28;20040;-89
2022/05/22 05:38:26;;;;;;;26.35;5.78;;;;;;;;;;4967408;28;20038;-89
2022/05/22 05:40:52;;;;;;;14.85;5.13;;;;;;;;;;4965040;28;20027;-89
2022/05/22 05:43:19;;;;;;;19.80;6.07;;;;;;;;;;4986919;28;20026;-89
2022/05/22 05:45:45;;;;;;;21.50;4.85;;;;;;;;;;4962870;28;20336;-89
2022/05/22 05:48:11;;;;;;;15.40;6.20;;;;;;;;;;4973857;28;20022;-89
2022/05/22 05:50:37;;;;;;;20.30;5.18;;;;;;;;;;4975003;28;20089;-89
2022/05/22 05:53:03;;;;;;;14.98;4.68;;;;;;;;;;4987714;28;20058;-89
2022/05/22 05:55:30;;;;;;;13.27;4.28;;;;;;;;;;4964511;28;20031;-89
2022/05/22 05:57:56;;;;;;;19.60;4.60;;;;;;;;;;4967157;28;20058;-89
2022/05/22 06:00:24;;;;;;;14.23;4.70;;;;;;;;;;4969775;28;20131;-89
2022/05/22 06:02:51;;;;;;;13.27;4.68;;;;;;;;;;4973525;28;20037;-89
2022/05/22 06:05:17;;;;;;;16.30;4.90;;;;;;;;;;4964980;28;21045;-89
2022/05/22 06:07:43;;;;;;;23.42;5.25;;;;;;;;;;4965325;28;20033;-88
2022/05/22 06:10:10;;;;;;;17.67;4.75;;;;;;;;;;4970464;28;20034;-88
2022/05/22 06:12:36;;;;;;;15.60;5.00;;;;;;;;;;4968203;28;20030;-89
2022/05/22 06:15:03;;;;;;;20.52;5.28;;;;;;;;;;4968422;28;20597;-89
2022/05/22 06:17:36;;;;;;;14.07;5.15;;;;;;;;;;4968014;28;20126;-89
2022/05/22 06:20:05;;;;;;;13.52;4.90;;;;;;;;;;4973518;28;20042;-89
2022/05/22 06:22:33;;;;;;;16.17;4.68;;;;;;;;;;4990391;28;20056;-89
2022/05/22 06:24:59;;;;;;;17.67;5.53;;;;;;;;;;4976089;28;20062;-89
2022/05/22 06:27:25;;;;;;;16.88;4.95;;;;;;;;;;4974727;28;20023;-89
2022/05/22 06:29:51;;;;;;;19.80;5.22;;;;;;;;;;4968244;28;20088;-89
2022/05/22 06:32:19;;;;;;;22.65;5.03;;;;;;;;;;4981084;28;20513;-89
2022/05/22 06:34:47;;;;;;;15.00;4.75;;;;;;;;;;4966430;28;20463;-89
2022/05/22 06:37:14;;;;;;;18.35;4.78;;;;;;;;;;4966773;28;20023;-90
2022/05/22 06:39:52;;;;;;;18.13;5.25;;;;;;;;;;4984119;28;20019;-89
2022/05/22 06:42:23;;;;;;;13.25;5.20;;;;;;;;;;4971031;28;20656;-89
2022/05/22 06:44:53;;;;;;;18.27;4.38;;;;;;;;;;4972316;28;20495;-89
2022/05/22 06:47:19;;;;;;;12.40;3.90;;;;;;;;;;4979580;28;20026;-89
2022/05/22 06:49:45;;;;;;;14.38;4.65;;;;;;;;;;4987163;28;20042;-89
2022/05/22 06:52:11;;;;;;;8.77;3.55;;;;;;;;;;4981365;28;20047;-89
2022/05/22 06:54:37;;;;;;;17.15;4.78;;;;;;;;;;4964382;28;20053;-89
2022/05/22 06:57:03;;;;;;;6.40;3.83;;;;;;;;;;4985654;28;20030;-89
2022/05/22 06:59:29;;;;;;;11.98;2.95;;;;;;;;;;4962905;28;20080;-90
2022/05/22 07:01:57;;;;;;;14.65;4.38;;;;;;;;;;4992589;28;20082;-89
2022/05/22 07:04:23;;;;;;;10.10;3.10;;;;;;;;;;4961563;28;20169;-89
2022/05/22 07:06:49;;;;;;;15.07;3.50;;;;;;;;;;4957441;28;20054;-89
2022/05/22 07:09:16;;;;;;;10.88;3.22;;;;;;;;;;4969926;28;20128;-90
2022/05/22 07:11:42;;;;;;;13.02;3.20;;;;;;;;;;4972312;28;20478;-89
2022/05/22 07:14:09;;;;;;;14.10;4.10;;;;;;;;;;4972382;28;20530;-89
2022/05/22 07:16:36;;;;;;;15.05;3.80;;;;;;;;;;4970437;28;20571;-90
2022/05/22 07:19:02;;;;;;;15.05;3.15;;;;;;;;;;4969689;28;20096;-90
2022/05/22 07:21:31;;;;;;;13.48;3.15;;;;;;;;;;4959634;28;21254;-90
2022/05/22 07:23:59;;;;;;;10.18;3.47;;;;;;;;;;4986869;28;20520;-89
2022/05/22 07:26:26;;;;;;;7.60;2.92;;;;;;;;;;4979258;28;20022;-89
2022/05/22 07:28:52;;;;;;;10.80;2.97;;;;;;;;;;4983561;28;20031;-89
2022/05/22 07:31:19;;;;;;;14.82;3.40;;;;;;;;;;4961119;28;20042;-90
2022/05/22 07:33:45;;;;;;;13.48;3.25;;;;;;;;;;4962013;28;20244;-90
2022/05/22 07:36:12;;;;;;;10.93;3.00;;;;;;;;;;4969336;28;20607;-89
2022/05/22 07:38:38;;;;;;;11.50;2.80;;;;;;;;;;4961418;28;20046;-90
2022/05/22 07:41:04;;;;;;;8.77;3.22;;;;;;;;;;4963559;28;20027;-90
2022/05/22 07:43:30;;;;;;;14.55;2.90;;;;;;;;;;4959023;28;20039;-90
2022/05/22 07:45:56;;;;;;;16.05;2.88;;;;;;;;;;4964274;28;20505;-90
2022/05/22 07:48:22;;;;;;;12.23;3.13;;;;;;;;;;4986597;28;20031;-90
2022/05/22 07:50:54;;;;;;;14.05;3.33;;;;;;;;;;4967239;28;20033;-89
2022/05/22 07:53:20;;;;;;;8.50;3.65;;;;;;;;;;4969222;28;20035;-90
2022/05/22 07:55:46;;;;;;;9.88;2.70;;;;;;;;;;4969214;28;20053;-90
2022/05/22 07:58:12;;;;;;;12.73;2.60;;;;;;;;;;4969907;28;20406;-89
2022/05/22 08:00:38;;;;;;;9.20;2.70;;;;;;;;;;4969547;28;20026;-90
2022/05/22 08:03:12;;;;;;;10.80;3.88;;;;;;;;;;4988032;28;20027;-90
2022/05/22 08:05:38;;;;;;;11.88;4.93;;;;;;;;;;4983485;28;20102;-90
2022/05/22 08:08:04;;;;;;;7.75;2.63;;;;;;;;;;4984376;28;20023;-89
2022/05/22 08:10:30;;;;;;;10.30;2.63;;;;;;;;;;4969788;28;20043;-90
2022/05/22 08:12:56;;;;;;;5.93;2.38;;;;;;;;;;4969597;28;20038;-89
2022/05/22 08:15:23;;;;;;;10.00;2.70;;;;;;;;;;4966799;28;20042;-90
2022/05/22 08:17:49;;;;;;;10.63;3.40;;;;;;;;;;4984456;28;20038;-90
2022/05/22 08:20:17;;;;;;;7.82;3.00;;;;;;;;;;4968646;28;20034;-89
2022/05/22 08:22:44;;;;;;;14.82;3.80;;;;;;;;;;4984146;28;20109;-90
2022/05/22 08:25:11;;;;;;;10.98;2.38;;;;;;;;;;4966905;28;20034;-89
2022/05/22 08:27:37;;;;;;;6.18;2.50;;;;;;;;;;4970775;28;20117;-90
2022/05/22 08:30:03;;;;;;;12.10;2.80;;;;;;;;;;4982273;28;20062;-90
2022/05/22 08:32:30;;;;;;;9.93;3.80;;;;;;;;;;4965911;28;20553;-89
2022/05/22 08:34:56;;;;;;;10.60;2.53;;;;;;;;;;4969496;28;20161;-89
2022/05/22 08:37:23;;;;;;;14.93;3.03;;;;;;;;;;4967200;28;20137;-88
2022/05/22 08:39:55;;;;;;;11.23;2.05;;;;;;;;;;4968609;28;20034;-89
2022/05/22 08:42:26;;;;;;;12.70;2.88;;;;;;;;;;4973793;28;20026;-90
2022/05/22 08:44:56;;;;;;;9.00;1.83;;;;;;;;;;4990178;28;20513;-89
2022/05/22 08:47:26;;;;;;;8.25;2.17;;;;;;;;;;4969245;28;20039;-90
2022/05/22 08:50:02;;;;;;;13.70;2.60;;;;;;;;;;4966964;28;20295;-89
2022/05/22 08:52:51;;;;;;;6.95;2.13;;;;;;;;;;4970678;28;20051;-90
2022/05/22 08:58:56;;;;;;;10.23;2.33;;;;;;;;;;4973333;28;20041;-90
2022/05/22 09:01:03;;;;;;;7.57;2.33;;;;;;;;;;4985837;28;20537;-89
2022/05/22 09:03:48;;;;;;;10.23;2.10;;;;;;;;;;4970528;28;20035;-89
2022/05/22 09:06:15;;;;;;;11.80;2.65;;;;;;;;;;4976449;28;20053;-89
2022/05/22 09:08:46;;;;;;;9.57;2.85;;;;;;;;;;4969518;28;20046;-89
2022/05/22 09:11:15;;;;;;;8.30;2.55;;;;;;;;;;4985899;28;20070;-88
2022/05/22 09:13:53;;;;;;;9.48;2.45;;;;;;;;;;4990800;28;20036;-89
2022/05/22 09:16:35;;;;;;;7.90;2.15;;;;;;;;;;4971970;28;20367;-89
2022/05/22 09:19:23;;;;;;;9.80;3.00;;;;;;;;;;4968903;28;20069;-90
2022/05/22 09:21:52;;;;;;;9.63;2.63;;;;;;;;;;4975133;28;20034;-90
2022/05/22 09:24:18;;;;;;;10.27;2.67;;;;;;;;;;4974050;28;20090;-88
2022/05/22 09:26:46;;;;;;;10.52;3.05;;;;;;;;;;4976603;28;20031;-90
2022/05/22 09:29:24;;;;;;;12.88;3.45;;;;;;;;;;4973225;28;20034;-89
2022/05/22 09:31:50;;;;;;;7.40;2.20;;;;;;;;;;4973986;28;20031;-89
2022/05/22 09:34:36;;;;;;;11.63;2.67;;;;;;;;;;4975168;28;20066;-90
2022/05/22 09:37:21;;;;;;;8.77;2.30;;;;;;;;;;4974312;28;20058;-89
2022/05/22 09:39:47;;;;;;;6.95;1.88;;;;;;;;;;4977665;28;20038;-89
2022/05/22 09:42:31;;;;;;;8.90;2.47;;;;;;;;;;4968507;28;20040;-89
2022/05/22 09:45:17;;;;;;;4.30;1.98;;;;;;;;;;4965321;28;20034;-89
2022/05/22 09:47:43;;;;;;;8.32;2.40;;;;;;;;;;4975259;28;20025;-89
2022/05/22 09:50:20;;;;;;;10.43;2.45;;;;;;;;;;4972072;28;20023;-89
2022/05/22 09:52:51;;;;;;;5.68;1.88;;;;;;;;;;4978340;28;20050;-89
2022/05/22 09:55:17;;;;;;;7.55;1.80;;;;;;;;;;4988093;28;20122;-90
2022/05/22 09:57:49;;;;;;;6.25;2.05;;;;;;;;;;4971557;28;20085;-90
2022/05/22 10:00:16;;;;;;;7.40;2.30;;;;;;;;;;4993280;28;20466;-89
2022/05/22 10:03:00;;;;;;;5.40;1.83;;;;;;;;;;4974857;28;20540;-90
2022/05/22 10:05:32;;;;;;;10.20;2.28;;;;;;;;;;4971726;28;20688;-89
2022/05/22 10:08:17;;;;;;;7.82;2.78;;;;;;;;;;4972969;28;20046;-89
2022/05/22 10:10:43;;;;;;;7.82;2.28;;;;;;;;;;4985619;28;20102;-90
2022/05/22 10:13:12;;;;;;;7.68;2.08;;;;;;;;;;4964106;28;20499;-90
2022/05/22 10:15:57;;;;;;;6.45;1.98;;;;;;;;;;4969376;28;20089;-89
2022/05/22 10:18:29;;;;;;;9.25;2.10;;;;;;;;;;4968261;28;20479;-89
2022/05/22 10:21:03;;;;;;;14.35;2.22;;;;;;;;;;4972949;28;20027;-90
2022/05/22 10:23:29;;;;;;;6.55;1.65;;;;;;;;;;4991244;28;20054;-89
2022/05/22 10:26:02;;;;;;;5.30;1.90;;;;;;;;;;4982663;28;20030;-89
2022/05/22 10:28:36;;;;;;;10.30;2.20;;;;;;;;;;4967529;28;20054;-89
2022/05/22 10:31:08;;;;;;;11.00;3.67;;;;;;;;;;4969283;28;20448;-89
2022/05/22 10:33:52;;;;;;;6.63;2.25;;;;;;;;;;4972390;28;20030;-89
2022/05/22 10:36:22;;;;;;;8.30;2.08;;;;;;;;;;4980888;28;20031;-89
2022/05/22 10:38:48;;;;;;;7.22;1.45;;;;;;;;;;4970395;28;20030;-89
2022/05/22 10:44:17;;;;;;;6.45;1.67;;;;;;;;;;4986762;28;20208;-89
2022/05/22 10:46:48;;;;;;;6.97;1.98;;;;;;;;;;4971937;28;20157;-90
2022/05/22 10:49:14;;;;;;;4.95;1.77;;;;;;;;;;4970055;28;20053;-89
2022/05/22 10:51:40;;;;;;;5.32;1.73;;;;;;;;;;4965775;28;20030;-89
2022/05/22 10:54:06;;;;;;;4.93;1.40;;;;;;;;;;4969906;28;20494;-90
2022/05/22 10:56:34;;;;;;;6.88;1.80;;;;;;;;;;4966828;28;20050;-90
2022/05/22 10:59:08;;;;;;;10.48;2.67;;;;;;;;;;4967721;28;20023;-90
2022/05/22 11:01:35;;;;;;;8.98;1.73;;;;;;;;;;4967216;28;20038;-90
2022/05/22 11:04:02;;;;;;;6.80;2.70;;;;;;;;;;4965715;28;20534;-89
2022/05/22 11:06:28;;;;;;;5.40;1.95;;;;;;;;;;4970170;28;20050;-89
2022/05/22 11:08:55;;;;;;;4.85;1.65;;;;;;;;;;4984271;28;20034;-89
2022/05/22 11:11:32;;;;;;;4.20;2.03;;;;;;;;;;4973046;28;20784;-89
2022/05/22 11:14:10;;;;;;;5.05;1.60;;;;;;;;;;4969282;28;20065;-90
2022/05/22 11:16:36;;;;;;;5.03;1.40;;;;;;;;;;4967390;28;20060;-89
2022/05/22 11:19:15;;;;;;;5.88;1.48;;;;;;;;;;4971392;28;20042;-89
2022/05/22 11:21:59;;;;;;;4.35;1.42;;;;;;;;;;4971701;28;20018;-90
2022/05/22 11:24:28;;;;;;;5.03;1.70;;;;;;;;;;4972708;28;20757;-90
2022/05/22 11:27:00;;;;;;;8.85;2.28;;;;;;;;;;4972684;28;20050;-89
2022/05/22 11:29:35;;;;;;;5.18;1.73;;;;;;;;;;4972152;28;20030;-89
2022/05/22 11:32:01;;;;;;;5.25;2.00;;;;;;;;;;4967615;28;20116;-90
2022/05/22 11:34:30;;;;;;;4.75;1.27;;;;;;;;;;4984135;28;20065;-90
2022/05/22 11:37:02;;;;;;;7.95;1.98;;;;;;;;;;4966499;28;20109;-90
2022/05/22 11:39:57;;;;;;;5.78;1.80;;;;;;;;;;4972915;28;20041;-89
2022/05/22 11:42:39;;;;;;;9.90;2.10;;;;;;;;;;4960498;28;20039;-89
2022/05/22 11:45:17;;;;;;;5.13;1.95;;;;;;;;;;4981569;28;20022;-89
2022/05/22 11:47:49;;;;;;;3.45;1.63;;;;;;;;;;4984340;28;20030;-89
2022/05/22 11:50:28;;;;;;;6.22;2.25;;;;;;;;;;4969864;28;20100;-90
2022/05/22 11:53:00;;;;;;;6.13;2.30;;;;;;;;;;4969560;28;20553;-90
2022/05/22 11:55:45;;;;;;;8.32;1.90;;;;;;;;;;4968374;28;20030;-90
2022/05/22 11:58:29;;;;;;;4.73;1.80;;;;;;;;;;4962257;28;20088;-89
2022/05/22 12:01:05;;;;;;;4.15;1.45;;;;;;;;;;4963900;28;20570;-90
2022/05/22 12:03:50;;;;;;;8.93;1.65;;;;;;;;;;4987642;28;20390;-90
2022/05/22 12:06:37;;;;;;;10.80;2.00;;;;;;;;;;4977934;28;20034;-90
2022/05/22 12:09:10;;;;;;;8.73;1.98;;;;;;;;;;4970071;28;20037;-90
2022/05/22 12:11:36;;;;;;;6.97;1.60;;;;;;;;;;4973298;28;20052;-89
2022/05/22 12:14:25;;;;;;;7.07;1.50;;;;;;;;;;4966547;28;20034;-90
2022/05/22 12:16:57;;;;;;;12.23;2.00;;;;;;;;;;4984564;28;20053;-89
2022/05/22 12:19:33;;;;;;;5.68;1.80;;;;;;;;;;4969648;28;20046;-90
2022/05/22 12:22:16;;;;;;;5.55;2.20;;;;;;;;;;4968920;28;20117;-90
2022/05/22 12:24:55;;;;;;;5.53;1.65;;;;;;;;;;4971529;28;20040;-90
2022/05/22 12:27:24;;;;;;;5.97;2.03;;;;;;;;;;4977753;28;20376;-89
2022/05/22 12:30:02;;;;;;;8.40;1.50;;;;;;;;;;4983351;28;20068;-89
2022/05/22 12:32:29;;;;;;;5.68;1.65;;;;;;;;;;4980297;28;20068;-89
2022/05/22 12:34:58;;;;;;;5.93;1.65;;;;;;;;;;4966582;28;20042;-90
2022/05/22 12:37:29;;;;;;;2.95;1.50;;;;;;;;;;4968315;28;20443;-89
2022/05/22 12:40:01;;;;;;;6.35;1.60;;;;;;;;;;4968493;28;20481;-90
2022/05/22 12:42:32;;;;;;;7.20;2.97;;;;;;;;;;4986909;28;20482;-90
2022/05/22 12:44:58;;;;;;;6.20;1.92;;;;;;;;;;4968985;28;20077;-89
2022/05/22 12:47:33;;;;;;;9.18;1.42;;;;;;;;;;4984058;28;20018;-89
2022/05/22 12:49:59;;;;;;;6.00;1.92;;;;;;;;;;4967277;28;20418;-89
2022/05/22 12:52:28;;;;;;;7.07;1.52;;;;;;;;;;4978596;28;20485;-89
2022/05/22 12:54:59;;;;;;;4.75;1.80;;;;;;;;;;4952678;28;20039;-89
2022/05/22 12:57:25;;;;;;;4.75;1.52;;;;;;;;;;4969217;28;20494;-89
2022/05/22 12:59:53;;;;;;;5.05;1.70;;;;;;;;;;4964111;28;20501;-89
2022/05/22 13:02:38;;;;;;;9.30;1.75;;;;;;;;;;4956982;28;20565;-89
2022/05/22 13:05:24;;;;;;;5.32;2.00;;;;;;;;;;4957142;28;20122;-89
2022/05/22 13:07:50;;;;;;;5.60;1.90;;;;;;;;;;4950388;28;20078;-89
2022/05/22 13:10:22;;;;;;;7.80;1.90;;;;;;;;;;4957401;28;20066;-89
2022/05/22 13:12:53;;;;;;;5.03;1.88;;;;;;;;;;4960447;28;20054;-89
2022/05/22 13:15:23;;;;;;;10.82;2.20;;;;;;;;;;4956171;28;20038;-89
2022/05/22 13:17:53;;;;;;;7.15;1.80;;;;;;;;;;4943765;28;20051;-89
2022/05/22 13:20:47;;;;;;;9.43;1.75;;;;;;;;;;4947202;28;20040;-89
2022/05/22 13:23:33;;;;;;;4.97;1.23;;;;;;;;;;4955293;28;20038;-89
2022/05/22 13:26:04;;;;;;;6.28;1.92;;;;;;;;;;4947445;28;20570;-89
2022/05/22 13:28:33;;;;;;;9.35;1.77;;;;;;;;;;4948605;28;20058;-89
2022/05/22 13:31:10;;;;;;;7.65;1.52;;;;;;;;;;4959180;28;20073;-89
2022/05/22 13:33:39;;;;;;;7.75;1.77;;;;;;;;;;4968517;28;20475;-87
2022/05/22 13:36:25;;;;;;;9.38;2.42;;;;;;;;;;4953531;28;20051;-89
2022/05/22 13:38:55;;;;;;;8.02;1.88;;;;;;;;;;4953551;28;20023;-89
2022/05/22 13:41:34;;;;;;;8.80;2.63;;;;;;;;;;4961013;28;20055;-89
2022/05/22 13:44:30;;;;;;;3.13;1.58;;;;;;;;;;4969535;28;20034;-89
2022/05/22 13:47:15;;;;;;;3.83;1.90;;;;;;;;;;4967474;28;20479;-89
2022/05/22 13:49:47;;;;;;;4.70;2.10;;;;;;;;;;4970187;28;20031;-89
2022/05/22 13:52:38;;;;;;;6.78;1.83;;;;;;;;;;4966154;28;20398;-88
2022/05/22 13:55:07;;;;;;;10.52;2.15;;;;;;;;;;4962947;28;20158;-89
2022/05/22 13:57:34;;;;;;;7.47;2.05;;;;;;;;;;4969625;28;20138;-89
2022/05/22 14:00:13;;;;;;;4.20;1.83;;;;;;;;;;4971226;28;20039;-89
2022/05/22 14:02:48;;;;;;;6.00;1.92;;;;;;;;;;4967470;28;20027;-89
2022/05/22 14:05:14;;;;;;;5.93;2.27;;;;;;;;;;4971904;28;20113;-89
2022/05/22 14:07:48;;;;;;;9.27;2.58;;;;;;;;;;4961951;28;20290;-89
2022/05/22 14:10:14;;;;;;;6.65;1.70;;;;;;;;;;4971675;28;20034;-89
2022/05/22 14:12:45;;;;;;;7.28;2.50;;;;;;;;;;4964424;28;20034;-89
2022/05/22 14:15:13;;;;;;;5.60;1.92;;;;;;;;;;4970245;28;20483;-89
2022/05/22 14:17:39;;;;;;;8.95;2.20;;;;;;;;;;4975282;28;20031;-89
2022/05/22 14:20:07;;;;;;;8.60;2.20;;;;;;;;;;4959426;28;20023;-89
2022/05/22 14:22:33;;;;;;;6.93;2.42;;;;;;;;;;4990173;28;20149;-87
2022/05/22 14:25:00;;;;;;;6.80;1.77;;;;;;;;;;4972025;28;20069;-90
2022/05/22 14:27:27;;;;;;;9.82;2.65;;;;;;;;;;4988432;28;20390;-89
2022/05/22 14:30:00;;;;;;;9.25;2.40;;;;;;;;;;4964381;28;20398;-89
2022/05/22 14:32:26;;;;;;;14.05;2.30;;;;;;;;;;4984707;28;20038;-89
2022/05/22 14:34:52;;;;;;;6.40;2.00;;;;;;;;;;4983126;28;20041;-89
2022/05/22 14:37:18;;;;;;;16.13;3.15;;;;;;;;;;4964591;28;20026;-89
2022/05/22 14:39:54;;;;;;;8.25;3.10;;;;;;;;;;4961172;28;20449;-88
2022/05/22 14:42:22;;;;;;;9.95;2.30;;;;;;;;;;4964034;28;20146;-89
2022/05/22 14:44:48;;;;;;;6.57;2.50;;;;;;;;;;4960590;28;20022;-89
2022/05/22 14:47:30;;;;;;;5.97;1.98;;;;;;;;;;4967599;28;20035;-89
2022/05/22 14:49:58;;;;;;;12.05;2.85;;;;;;;;;;4973055;28;20116;-89
2022/05/22 14:52:35;;;;;;;9.95;2.33;;;;;;;;;;4964081;28;20060;-89
2022/05/22 14:55:25;;;;;;;9.15;2.42;;;;;;;;;;4986287;28;20055;-88
2022/05/22 14:57:55;;;;;;;6.57;1.67;;;;;;;;;;4973210;28;20041;-89
2022/05/22 15:00:24;;;;;;;16.08;2.60;;;;;;;;;;4968568;28;20026;-89